sensor_id;sensor_type;location;lat;lon;timestamp;temperature;humidity
38325;DHT22;24126;52.672;13.622;2022-12-19T00:01:29;0.30;70.00
38325;DHT22;24126;52.672;13.622;2022-12-19T00:04:01;0.40;69.90
38325;DHT22;24126;52.672;13.622;2022-12-19T00:06:28;0.40;69.80
38325;DHT22;24126;52.672;13.622;2022-12-19T00:08:56;0.40;69.80
38325;DHT22;24126;52.672;13.622;2022-12-19T00:11:23;0.40;69.80
38325;DHT22;24126;52.672;13.622;2022-12-19T00:13:51;0.40;69.90
38325;DHT22;24126;52.672;13.622;2022-12-19T00:16:19;0.40;69.90
38325;DHT22;24126;52.672;13.622;2022-12-19T00:18:47;0.40;70.00
38325;DHT22;24126;52.672;13.622;2022-12-19T00:21:15;0.40;70.10
38325;DHT22;24126;52.672;13.622;2022-12-19T00:23:42;0.30;70.00
38325;DHT22;24126;52.672;13.622;2022-12-19T00:26:17;0.30;70.10
38325;DHT22;24126;52.672;13.622;2022-12-19T00:28:47;0.30;70.10
38325;DHT22;24126;52.672;13.622;2022-12-19T00:31:15;0.40;70.10
38325;DHT22;24126;52.672;13.622;2022-12-19T00:33:42;0.40;70.10
38325;DHT22;24126;52.672;13.622;2022-12-19T00:36:12;0.40;70.00
38325;DHT22;24126;52.672;13.622;2022-12-19T00:38:39;0.40;69.90
38325;DHT22;24126;52.672;13.622;2022-12-19T00:41:10;0.40;70.00
38325;DHT22;24126;52.672;13.622;2022-12-19T00:43:37;0.40;69.90
38325;DHT22;24126;52.672;13.622;2022-12-19T00:46:08;0.40;69.90
38325;DHT22;24126;52.672;13.622;2022-12-19T00:48:35;0.40;69.90
38325;DHT22;24126;52.672;13.622;2022-12-19T00:51:04;0.50;69.90
38325;DHT22;24126;52.672;13.622;2022-12-19T00:53:31;0.50;69.80
38325;DHT22;24126;52.672;13.622;2022-12-19T00:56:06;0.50;69.80
38325;DHT22;24126;52.672;13.622;2022-12-19T00:58:33;0.50;69.70
38325;DHT22;24126;52.672;13.622;2022-12-19T01:01:12;0.40;69.60
38325;DHT22;24126;52.672;13.622;2022-12-19T01:03:39;0.40;69.80
38325;DHT22;24126;52.672;13.622;2022-12-19T01:06:06;0.40;69.90
38325;DHT22;24126;52.672;13.622;2022-12-19T01:08:33;0.30;70.00
38325;DHT22;24126;52.672;13.622;2022-12-19T01:11:01;0.40;70.00
38325;DHT22;24126;52.672;13.622;2022-12-19T01:13:29;0.40;70.00
38325;DHT22;24126;52.672;13.622;2022-12-19T01:16:00;0.40;70.00
38325;DHT22;24126;52.672;13.622;2022-12-19T01:18:28;0.40;70.00
38325;DHT22;24126;52.672;13.622;2022-12-19T01:20:57;0.40;70.00
38325;DHT22;24126;52.672;13.622;2022-12-19T01:23:28;0.40;69.90
38325;DHT22;24126;52.672;13.622;2022-12-19T01:25:55;0.40;69.90
38325;DHT22;24126;52.672;13.622;2022-12-19T01:28:22;0.40;69.90
38325;DHT22;24126;52.672;13.622;2022-12-19T01:30:49;0.30;70.00
38325;DHT22;24126;52.672;13.622;2022-12-19T01:33:16;0.40;70.00
38325;DHT22;24126;52.672;13.622;2022-12-19T01:35:47;0.40;70.00
38325;DHT22;24126;52.672;13.622;2022-12-19T01:38:15;0.40;70.00
38325;DHT22;24126;52.672;13.622;2022-12-19T01:40:52;0.30;70.00
38325;DHT22;24126;52.672;13.622;2022-12-19T01:43:20;0.40;70.00
38325;DHT22;24126;52.672;13.622;2022-12-19T01:45:49;0.40;69.70
38325;DHT22;24126;52.672;13.622;2022-12-19T01:48:21;0.40;69.80
38325;DHT22;24126;52.672;13.622;2022-12-19T01:53:19;0.30;69.80
38325;DHT22;24126;52.672;13.622;2022-12-19T01:55:47;0.30;69.80
38325;DHT22;24126;52.672;13.622;2022-12-19T01:58:16;0.30;69.80
38325;DHT22;24126;52.672;13.622;2022-12-19T02:00:43;0.30;69.70
38325;DHT22;24126;52.672;13.622;2022-12-19T02:03:13;0.40;69.70
38325;DHT22;24126;52.672;13.622;2022-12-19T02:05:43;0.40;69.60
38325;DHT22;24126;52.672;13.622;2022-12-19T02:08:10;0.40;69.40
38325;DHT22;24126;52.672;13.622;2022-12-19T02:10:39;0.40;69.30
38325;DHT22;24126;52.672;13.622;2022-12-19T02:13:06;0.40;69.10
38325;DHT22;24126;52.672;13.622;2022-12-19T02:15:36;0.40;69.20
38325;DHT22;24126;52.672;13.622;2022-12-19T02:18:19;0.40;69.20
38325;DHT22;24126;52.672;13.622;2022-12-19T02:26:28;0.30;69.30
38325;DHT22;24126;52.672;13.622;2022-12-19T02:31:55;0.30;69.50
38325;DHT22;24126;52.672;13.622;2022-12-19T02:34:29;0.20;69.40
38325;DHT22;24126;52.672;13.622;2022-12-19T02:37:04;0.30;69.40
38325;DHT22;24126;52.672;13.622;2022-12-19T02:39:34;0.20;69.40
38325;DHT22;24126;52.672;13.622;2022-12-19T02:42:03;0.20;69.40
38325;DHT22;24126;52.672;13.622;2022-12-19T02:44:40;0.30;69.50
38325;DHT22;24126;52.672;13.622;2022-12-19T02:47:09;0.30;69.40
38325;DHT22;24126;52.672;13.622;2022-12-19T02:49:37;0.30;69.40
38325;DHT22;24126;52.672;13.622;2022-12-19T02:54:36;0.20;69.40
38325;DHT22;24126;52.672;13.622;2022-12-19T02:57:07;0.20;69.30
38325;DHT22;24126;52.672;13.622;2022-12-19T02:59:42;0.20;69.40
38325;DHT22;24126;52.672;13.622;2022-12-19T03:02:22;0.20;69.60
38325;DHT22;24126;52.672;13.622;2022-12-19T03:04:58;0.20;69.60
38325;DHT22;24126;52.672;13.622;2022-12-19T03:07:29;0.10;69.60
38325;DHT22;24126;52.672;13.622;2022-12-19T03:10:03;0.10;69.60
38325;DHT22;24126;52.672;13.622;2022-12-19T03:12:35;0.10;69.70
38325;DHT22;24126;52.672;13.622;2022-12-19T03:15:05;0.10;69.60
38325;DHT22;24126;52.672;13.622;2022-12-19T03:17:36;0.20;69.60
38325;DHT22;24126;52.672;13.622;2022-12-19T03:20:07;0.20;69.50
38325;DHT22;24126;52.672;13.622;2022-12-19T03:22:36;0.10;69.40
38325;DHT22;24126;52.672;13.622;2022-12-19T03:25:03;0.10;69.40
38325;DHT22;24126;52.672;13.622;2022-12-19T03:27:32;0.10;69.30
38325;DHT22;24126;52.672;13.622;2022-12-19T03:30:05;0.10;69.20
38325;DHT22;24126;52.672;13.622;2022-12-19T03:32:33;0.10;69.20
38325;DHT22;24126;52.672;13.622;2022-12-19T03:37:35;0.10;69.30
38325;DHT22;24126;52.672;13.622;2022-12-19T03:40:05;0.00;69.40
38325;DHT22;24126;52.672;13.622;2022-12-19T03:42:34;0.00;69.60
38325;DHT22;24126;52.672;13.622;2022-12-19T03:45:22;0.00;69.60
38325;DHT22;24126;52.672;13.622;2022-12-19T03:47:55;0.00;69.50
38325;DHT22;24126;52.672;13.622;2022-12-19T03:50:23;0.00;69.40
38325;DHT22;24126;52.672;13.622;2022-12-19T03:52:57;0.10;69.40
38325;DHT22;24126;52.672;13.622;2022-12-19T03:55:30;0.10;69.40
38325;DHT22;24126;52.672;13.622;2022-12-19T03:58:00;0.00;69.30
38325;DHT22;24126;52.672;13.622;2022-12-19T04:00:32;0.00;69.40
38325;DHT22;24126;52.672;13.622;2022-12-19T04:03:00;0.00;69.50
38325;DHT22;24126;52.672;13.622;2022-12-19T04:05:28;0.00;69.50
38325;DHT22;24126;52.672;13.622;2022-12-19T04:07:57;0.00;69.60
38325;DHT22;24126;52.672;13.622;2022-12-19T04:10:26;0.00;69.60
38325;DHT22;24126;52.672;13.622;2022-12-19T04:12:58;0.00;69.80
38325;DHT22;24126;52.672;13.622;2022-12-19T04:15:31;0.00;69.80
38325;DHT22;24126;52.672;13.622;2022-12-19T04:17:59;-0.10;69.70
38325;DHT22;24126;52.672;13.622;2022-12-19T04:20:29;0.00;69.80
38325;DHT22;24126;52.672;13.622;2022-12-19T04:23:02;0.00;69.70
38325;DHT22;24126;52.672;13.622;2022-12-19T04:25:31;0.00;69.70
38325;DHT22;24126;52.672;13.622;2022-12-19T04:28:01;0.00;69.80
38325;DHT22;24126;52.672;13.622;2022-12-19T04:30:29;0.00;69.80
38325;DHT22;24126;52.672;13.622;2022-12-19T04:32:57;0.00;69.80
38325;DHT22;24126;52.672;13.622;2022-12-19T04:35:24;0.00;69.90
38325;DHT22;24126;52.672;13.622;2022-12-19T04:37:51;0.00;70.00
38325;DHT22;24126;52.672;13.622;2022-12-19T04:40:18;-0.10;69.90
38325;DHT22;24126;52.672;13.622;2022-12-19T04:42:45;-0.10;69.90
38325;DHT22;24126;52.672;13.622;2022-12-19T04:45:12;-0.10;70.10
38325;DHT22;24126;52.672;13.622;2022-12-19T04:47:42;0.00;70.20
38325;DHT22;24126;52.672;13.622;2022-12-19T04:50:09;0.00;70.30
38325;DHT22;24126;52.672;13.622;2022-12-19T04:52:36;0.00;70.30
38325;DHT22;24126;52.672;13.622;2022-12-19T04:55:03;0.10;70.20
38325;DHT22;24126;52.672;13.622;2022-12-19T04:57:30;0.10;70.10
38325;DHT22;24126;52.672;13.622;2022-12-19T04:59:57;0.10;70.10
38325;DHT22;24126;52.672;13.622;2022-12-19T05:02:25;0.20;70.00
38325;DHT22;24126;52.672;13.622;2022-12-19T05:04:52;0.20;69.70
38325;DHT22;24126;52.672;13.622;2022-12-19T05:07:19;0.20;69.60
38325;DHT22;24126;52.672;13.622;2022-12-19T05:09:46;0.20;69.70
38325;DHT22;24126;52.672;13.622;2022-12-19T05:12:13;0.20;69.70
38325;DHT22;24126;52.672;13.622;2022-12-19T05:14:40;0.20;69.80
38325;DHT22;24126;52.672;13.622;2022-12-19T05:17:08;0.10;69.80
38325;DHT22;24126;52.672;13.622;2022-12-19T05:19:34;0.10;70.10
38325;DHT22;24126;52.672;13.622;2022-12-19T05:22:02;0.10;70.00
38325;DHT22;24126;52.672;13.622;2022-12-19T05:24:29;0.10;70.10
38325;DHT22;24126;52.672;13.622;2022-12-19T05:26:56;0.20;70.20
38325;DHT22;24126;52.672;13.622;2022-12-19T05:29:23;0.20;70.00
38325;DHT22;24126;52.672;13.622;2022-12-19T05:31:50;0.20;70.00
38325;DHT22;24126;52.672;13.622;2022-12-19T05:34:17;0.20;70.00
38325;DHT22;24126;52.672;13.622;2022-12-19T05:36:44;0.20;70.10
38325;DHT22;24126;52.672;13.622;2022-12-19T05:39:11;0.20;70.10
38325;DHT22;24126;52.672;13.622;2022-12-19T05:41:38;0.20;70.50
38325;DHT22;24126;52.672;13.622;2022-12-19T05:44:05;0.30;70.10
38325;DHT22;24126;52.672;13.622;2022-12-19T05:46:32;0.30;69.80
38325;DHT22;24126;52.672;13.622;2022-12-19T05:48:59;0.30;69.80
38325;DHT22;24126;52.672;13.622;2022-12-19T05:51:26;0.30;69.90
38325;DHT22;24126;52.672;13.622;2022-12-19T05:53:53;0.30;69.90
38325;DHT22;24126;52.672;13.622;2022-12-19T05:56:21;0.30;70.10
38325;DHT22;24126;52.672;13.622;2022-12-19T05:58:48;0.20;70.20
38325;DHT22;24126;52.672;13.622;2022-12-19T06:03:43;0.30;70.40
38325;DHT22;24126;52.672;13.622;2022-12-19T06:06:14;0.30;70.40
38325;DHT22;24126;52.672;13.622;2022-12-19T06:08:41;0.30;70.50
38325;DHT22;24126;52.672;13.622;2022-12-19T06:11:09;0.30;70.40
38325;DHT22;24126;52.672;13.622;2022-12-19T06:13:37;0.30;70.70
38325;DHT22;24126;52.672;13.622;2022-12-19T06:16:06;0.30;70.60
38325;DHT22;24126;52.672;13.622;2022-12-19T06:18:33;0.40;70.60
38325;DHT22;24126;52.672;13.622;2022-12-19T06:21:05;0.40;71.10
38325;DHT22;24126;52.672;13.622;2022-12-19T06:23:33;0.40;70.30
38325;DHT22;24126;52.672;13.622;2022-12-19T06:26:01;0.40;70.40
38325;DHT22;24126;52.672;13.622;2022-12-19T06:28:29;0.50;70.40
38325;DHT22;24126;52.672;13.622;2022-12-19T06:30:56;0.50;70.40
38325;DHT22;24126;52.672;13.622;2022-12-19T06:33:23;0.50;70.30
38325;DHT22;24126;52.672;13.622;2022-12-19T06:36:00;0.50;70.40
38325;DHT22;24126;52.672;13.622;2022-12-19T06:38:28;0.50;70.50
38325;DHT22;24126;52.672;13.622;2022-12-19T06:40:55;0.50;70.60
38325;DHT22;24126;52.672;13.622;2022-12-19T06:43:40;0.50;70.70
38325;DHT22;24126;52.672;13.622;2022-12-19T06:46:07;0.50;70.70
38325;DHT22;24126;52.672;13.622;2022-12-19T06:48:34;0.50;70.90
38325;DHT22;24126;52.672;13.622;2022-12-19T06:51:01;0.50;70.80
38325;DHT22;24126;52.672;13.622;2022-12-19T06:53:29;0.60;70.90
38325;DHT22;24126;52.672;13.622;2022-12-19T06:55:56;0.60;70.80
38325;DHT22;24126;52.672;13.622;2022-12-19T06:58:24;0.60;70.80
38325;DHT22;24126;52.672;13.622;2022-12-19T07:00:51;0.60;70.80
38325;DHT22;24126;52.672;13.622;2022-12-19T07:03:20;0.70;70.80
38325;DHT22;24126;52.672;13.622;2022-12-19T07:05:48;0.70;70.80
38325;DHT22;24126;52.672;13.622;2022-12-19T07:08:15;0.70;70.70
38325;DHT22;24126;52.672;13.622;2022-12-19T07:10:42;0.70;70.80
38325;DHT22;24126;52.672;13.622;2022-12-19T07:13:09;0.70;70.80
38325;DHT22;24126;52.672;13.622;2022-12-19T07:15:36;0.80;70.80
38325;DHT22;24126;52.672;13.622;2022-12-19T07:18:04;0.80;70.80
38325;DHT22;24126;52.672;13.622;2022-12-19T07:20:31;0.90;70.70
38325;DHT22;24126;52.672;13.622;2022-12-19T07:22:59;0.90;70.70
38325;DHT22;24126;52.672;13.622;2022-12-19T07:25:27;0.90;70.70
38325;DHT22;24126;52.672;13.622;2022-12-19T07:27:54;1.00;70.60
38325;DHT22;24126;52.672;13.622;2022-12-19T07:30:21;1.00;70.60
38325;DHT22;24126;52.672;13.622;2022-12-19T07:32:48;1.00;70.60
38325;DHT22;24126;52.672;13.622;2022-12-19T07:35:15;1.10;70.40
38325;DHT22;24126;52.672;13.622;2022-12-19T07:37:42;1.10;70.30
38325;DHT22;24126;52.672;13.622;2022-12-19T07:40:09;1.10;70.40
38325;DHT22;24126;52.672;13.622;2022-12-19T07:42:39;1.10;70.40
38325;DHT22;24126;52.672;13.622;2022-12-19T07:45:06;1.10;70.40
38325;DHT22;24126;52.672;13.622;2022-12-19T07:47:33;1.20;70.20
38325;DHT22;24126;52.672;13.622;2022-12-19T07:50:00;1.20;70.20
38325;DHT22;24126;52.672;13.622;2022-12-19T07:52:27;1.20;70.10
38325;DHT22;24126;52.672;13.622;2022-12-19T07:54:54;1.30;70.10
38325;DHT22;24126;52.672;13.622;2022-12-19T07:57:21;1.30;70.10
38325;DHT22;24126;52.672;13.622;2022-12-19T07:59:48;1.30;70.20
38325;DHT22;24126;52.672;13.622;2022-12-19T08:02:15;1.40;70.30
38325;DHT22;24126;52.672;13.622;2022-12-19T08:04:42;1.40;70.00
38325;DHT22;24126;52.672;13.622;2022-12-19T08:07:09;1.50;70.20
38325;DHT22;24126;52.672;13.622;2022-12-19T08:09:36;1.60;69.90
38325;DHT22;24126;52.672;13.622;2022-12-19T08:12:03;1.60;69.80
38325;DHT22;24126;52.672;13.622;2022-12-19T08:14:30;1.60;69.50
38325;DHT22;24126;52.672;13.622;2022-12-19T08:16:57;1.60;69.50
38325;DHT22;24126;52.672;13.622;2022-12-19T08:19:24;1.70;69.60
38325;DHT22;24126;52.672;13.622;2022-12-19T08:21:51;1.70;69.50
38325;DHT22;24126;52.672;13.622;2022-12-19T08:24:18;1.70;69.50
38325;DHT22;24126;52.672;13.622;2022-12-19T08:26:45;1.80;69.50
38325;DHT22;24126;52.672;13.622;2022-12-19T08:29:12;1.80;69.50
38325;DHT22;24126;52.672;13.622;2022-12-19T08:31:39;1.80;69.40
38325;DHT22;24126;52.672;13.622;2022-12-19T08:34:06;1.90;69.50
38325;DHT22;24126;52.672;13.622;2022-12-19T08:36:33;1.90;69.20
38325;DHT22;24126;52.672;13.622;2022-12-19T08:39:00;1.90;69.20
38325;DHT22;24126;52.672;13.622;2022-12-19T08:41:27;2.00;69.40
38325;DHT22;24126;52.672;13.622;2022-12-19T08:43:54;2.10;69.10
38325;DHT22;24126;52.672;13.622;2022-12-19T08:46:21;2.10;69.00
38325;DHT22;24126;52.672;13.622;2022-12-19T08:48:49;2.20;68.80
38325;DHT22;24126;52.672;13.622;2022-12-19T08:51:16;2.20;68.70
38325;DHT22;24126;52.672;13.622;2022-12-19T08:53:43;2.20;68.60
38325;DHT22;24126;52.672;13.622;2022-12-19T08:56:18;2.30;68.60
38325;DHT22;24126;52.672;13.622;2022-12-19T08:58:45;2.40;68.50
38325;DHT22;24126;52.672;13.622;2022-12-19T09:01:16;2.40;68.50
38325;DHT22;24126;52.672;13.622;2022-12-19T09:03:44;2.50;68.10
38325;DHT22;24126;52.672;13.622;2022-12-19T09:06:12;2.60;68.20
38325;DHT22;24126;52.672;13.622;2022-12-19T09:08:40;2.60;68.20
38325;DHT22;24126;52.672;13.622;2022-12-19T09:11:09;2.60;67.90
38325;DHT22;24126;52.672;13.622;2022-12-19T09:13:36;2.60;67.90
38325;DHT22;24126;52.672;13.622;2022-12-19T09:16:05;2.60;68.10
38325;DHT22;24126;52.672;13.622;2022-12-19T09:18:33;2.60;68.10
38325;DHT22;24126;52.672;13.622;2022-12-19T09:21:00;2.70;68.00
38325;DHT22;24126;52.672;13.622;2022-12-19T09:23:27;2.70;68.20
38325;DHT22;24126;52.672;13.622;2022-12-19T09:26:00;2.70;68.10
38325;DHT22;24126;52.672;13.622;2022-12-19T09:28:28;2.80;68.10
38325;DHT22;24126;52.672;13.622;2022-12-19T09:30:56;2.80;68.10
38325;DHT22;24126;52.672;13.622;2022-12-19T09:33:24;2.80;67.80
38325;DHT22;24126;52.672;13.622;2022-12-19T09:35:51;2.80;67.80
38325;DHT22;24126;52.672;13.622;2022-12-19T09:38:19;2.90;67.80
38325;DHT22;24126;52.672;13.622;2022-12-19T09:43:49;3.00;67.80
38325;DHT22;24126;52.672;13.622;2022-12-19T09:46:26;3.10;67.60
38325;DHT22;24126;52.672;13.622;2022-12-19T09:48:59;3.20;67.60
38325;DHT22;24126;52.672;13.622;2022-12-19T09:51:48;3.20;67.30
38325;DHT22;24126;52.672;13.622;2022-12-19T09:54:19;3.20;67.40
38325;DHT22;24126;52.672;13.622;2022-12-19T09:56:50;3.30;67.50
38325;DHT22;24126;52.672;13.622;2022-12-19T09:59:24;3.30;67.30
38325;DHT22;24126;52.672;13.622;2022-12-19T10:04:47;3.40;67.10
38325;DHT22;24126;52.672;13.622;2022-12-19T10:07:15;3.40;67.00
38325;DHT22;24126;52.672;13.622;2022-12-19T10:09:44;3.40;67.20
38325;DHT22;24126;52.672;13.622;2022-12-19T10:12:20;3.50;67.10
38325;DHT22;24126;52.672;13.622;2022-12-19T10:15:02;3.50;67.00
38325;DHT22;24126;52.672;13.622;2022-12-19T10:20:15;3.60;67.10
38325;DHT22;24126;52.672;13.622;2022-12-19T10:25:28;3.60;66.80
38325;DHT22;24126;52.672;13.622;2022-12-19T10:36:08;3.80;66.70
38325;DHT22;24126;52.672;13.622;2022-12-19T10:38:41;3.80;66.50
38325;DHT22;24126;52.672;13.622;2022-12-19T10:41:13;3.90;66.50
38325;DHT22;24126;52.672;13.622;2022-12-19T10:46:10;3.90;66.30
38325;DHT22;24126;52.672;13.622;2022-12-19T10:48:39;4.00;66.50
38325;DHT22;24126;52.672;13.622;2022-12-19T10:51:10;4.10;66.30
38325;DHT22;24126;52.672;13.622;2022-12-19T10:53:38;4.10;66.10
38325;DHT22;24126;52.672;13.622;2022-12-19T10:56:12;4.20;66.10
38325;DHT22;24126;52.672;13.622;2022-12-19T10:58:41;4.20;66.00
38325;DHT22;24126;52.672;13.622;2022-12-19T11:01:15;4.30;65.90
38325;DHT22;24126;52.672;13.622;2022-12-19T11:03:51;4.30;65.90
38325;DHT22;24126;52.672;13.622;2022-12-19T11:09:17;4.50;65.80
38325;DHT22;24126;52.672;13.622;2022-12-19T11:11:45;4.60;65.50
38325;DHT22;24126;52.672;13.622;2022-12-19T11:14:26;4.70;65.60
38325;DHT22;24126;52.672;13.622;2022-12-19T11:16:53;4.70;65.60
38325;DHT22;24126;52.672;13.622;2022-12-19T11:19:28;4.70;65.10
38325;DHT22;24126;52.672;13.622;2022-12-19T11:21:56;4.70;65.20
38325;DHT22;24126;52.672;13.622;2022-12-19T11:24:27;4.70;65.30
38325;DHT22;24126;52.672;13.622;2022-12-19T11:26:55;4.80;65.40
38325;DHT22;24126;52.672;13.622;2022-12-19T11:31:53;4.80;65.30
38325;DHT22;24126;52.672;13.622;2022-12-19T11:34:21;4.90;65.40
38325;DHT22;24126;52.672;13.622;2022-12-19T11:36:58;4.90;65.40
38325;DHT22;24126;52.672;13.622;2022-12-19T11:39:40;4.90;65.60
38325;DHT22;24126;52.672;13.622;2022-12-19T11:44:47;5.00;66.20
38325;DHT22;24126;52.672;13.622;2022-12-19T11:49:57;5.10;66.30
38325;DHT22;24126;52.672;13.622;2022-12-19T11:52:35;5.10;66.70
38325;DHT22;24126;52.672;13.622;2022-12-19T11:57:31;5.10;67.10
38325;DHT22;24126;52.672;13.622;2022-12-19T11:59:58;5.20;67.50
38325;DHT22;24126;52.672;13.622;2022-12-19T12:02:37;5.20;67.60
38325;DHT22;24126;52.672;13.622;2022-12-19T12:07:55;5.30;67.60
38325;DHT22;24126;52.672;13.622;2022-12-19T12:10:23;5.30;68.00
38325;DHT22;24126;52.672;13.622;2022-12-19T12:12:57;5.20;67.60
38325;DHT22;24126;52.672;13.622;2022-12-19T12:17:58;5.30;68.20
38325;DHT22;24126;52.672;13.622;2022-12-19T12:30:38;5.20;70.00
38325;DHT22;24126;52.672;13.622;2022-12-19T12:33:18;5.20;69.50
38325;DHT22;24126;52.672;13.622;2022-12-19T12:35:52;5.20;69.90
38325;DHT22;24126;52.672;13.622;2022-12-19T12:43:45;5.20;70.50
38325;DHT22;24126;52.672;13.622;2022-12-19T12:46:16;5.20;70.70
38325;DHT22;24126;52.672;13.622;2022-12-19T12:48:56;5.20;70.90
38325;DHT22;24126;52.672;13.622;2022-12-19T12:51:24;5.20;71.00
38325;DHT22;24126;52.672;13.622;2022-12-19T12:53:53;5.20;71.20
38325;DHT22;24126;52.672;13.622;2022-12-19T12:56:21;5.20;71.70
38325;DHT22;24126;52.672;13.622;2022-12-19T13:04:02;5.20;72.70
38325;DHT22;24126;52.672;13.622;2022-12-19T13:09:04;5.20;72.80
38325;DHT22;24126;52.672;13.622;2022-12-19T13:11:53;5.20;73.40
38325;DHT22;24126;52.672;13.622;2022-12-19T13:14:41;5.30;73.50
38325;DHT22;24126;52.672;13.622;2022-12-19T13:17:09;5.30;73.60
38325;DHT22;24126;52.672;13.622;2022-12-19T13:19:37;5.30;73.90
38325;DHT22;24126;52.672;13.622;2022-12-19T13:24:39;5.30;74.60
38325;DHT22;24126;52.672;13.622;2022-12-19T13:30:01;5.30;74.60
38325;DHT22;24126;52.672;13.622;2022-12-19T13:33:05;5.30;75.00
38325;DHT22;24126;52.672;13.622;2022-12-19T13:43:15;5.30;75.50
38325;DHT22;24126;52.672;13.622;2022-12-19T13:46:22;5.30;75.50
38325;DHT22;24126;52.672;13.622;2022-12-19T13:48:50;5.30;76.10
38325;DHT22;24126;52.672;13.622;2022-12-19T13:51:18;5.30;76.20
38325;DHT22;24126;52.672;13.622;2022-12-19T13:53:45;5.30;76.30
38325;DHT22;24126;52.672;13.622;2022-12-19T13:56:13;5.40;76.50
38325;DHT22;24126;52.672;13.622;2022-12-19T13:58:52;5.40;76.40
38325;DHT22;24126;52.672;13.622;2022-12-19T14:01:24;5.40;76.50
38325;DHT22;24126;52.672;13.622;2022-12-19T14:03:53;5.40;76.70
38325;DHT22;24126;52.672;13.622;2022-12-19T14:06:22;5.40;76.90
38325;DHT22;24126;52.672;13.622;2022-12-19T14:08:50;5.40;77.00
38325;DHT22;24126;52.672;13.622;2022-12-19T14:11:18;5.40;77.10
38325;DHT22;24126;52.672;13.622;2022-12-19T14:13:47;5.40;77.20
38325;DHT22;24126;52.672;13.622;2022-12-19T14:16:32;5.40;77.40
38325;DHT22;24126;52.672;13.622;2022-12-19T14:18:59;5.50;77.20
38325;DHT22;24126;52.672;13.622;2022-12-19T14:21:26;5.50;77.60
38325;DHT22;24126;52.672;13.622;2022-12-19T14:24:15;5.50;77.60
38325;DHT22;24126;52.672;13.622;2022-12-19T14:26:42;5.50;77.60
38325;DHT22;24126;52.672;13.622;2022-12-19T14:29:15;5.50;77.80
38325;DHT22;24126;52.672;13.622;2022-12-19T14:31:44;5.50;77.80
38325;DHT22;24126;52.672;13.622;2022-12-19T14:34:17;5.50;77.80
38325;DHT22;24126;52.672;13.622;2022-12-19T14:36:47;5.50;78.20
38325;DHT22;24126;52.672;13.622;2022-12-19T14:39:16;5.50;78.20
38325;DHT22;24126;52.672;13.622;2022-12-19T14:41:43;5.60;78.20
38325;DHT22;24126;52.672;13.622;2022-12-19T14:44:42;5.50;78.30
38325;DHT22;24126;52.672;13.622;2022-12-19T14:47:11;5.60;78.40
38325;DHT22;24126;52.672;13.622;2022-12-19T14:49:38;5.50;78.70
38325;DHT22;24126;52.672;13.622;2022-12-19T14:57:37;5.60;79.40
38325;DHT22;24126;52.672;13.622;2022-12-19T15:00:20;5.60;79.40
38325;DHT22;24126;52.672;13.622;2022-12-19T15:02:47;5.60;80.00
38325;DHT22;24126;52.672;13.622;2022-12-19T15:05:14;5.70;79.40
38325;DHT22;24126;52.672;13.622;2022-12-19T15:07:45;5.70;79.30
38325;DHT22;24126;52.672;13.622;2022-12-19T15:10:21;5.70;79.20
38325;DHT22;24126;52.672;13.622;2022-12-19T15:15:40;5.70;79.60
38325;DHT22;24126;52.672;13.622;2022-12-19T15:18:15;5.70;79.60
38325;DHT22;24126;52.672;13.622;2022-12-19T15:20:43;5.80;79.60
38325;DHT22;24126;52.672;13.622;2022-12-19T15:23:10;5.90;79.50
38325;DHT22;24126;52.672;13.622;2022-12-19T15:25:37;5.90;79.40
38325;DHT22;24126;52.672;13.622;2022-12-19T15:28:09;5.90;79.50
38325;DHT22;24126;52.672;13.622;2022-12-19T15:30:37;5.90;79.70
38325;DHT22;24126;52.672;13.622;2022-12-19T15:33:11;6.00;79.90
38325;DHT22;24126;52.672;13.622;2022-12-19T15:35:38;6.00;79.80
38325;DHT22;24126;52.672;13.622;2022-12-19T15:38:05;6.00;80.00
38325;DHT22;24126;52.672;13.622;2022-12-19T15:40:32;6.10;79.90
38325;DHT22;24126;52.672;13.622;2022-12-19T15:43:00;6.10;80.00
38325;DHT22;24126;52.672;13.622;2022-12-19T15:45:27;6.20;80.00
38325;DHT22;24126;52.672;13.622;2022-12-19T15:47:55;6.20;79.90
38325;DHT22;24126;52.672;13.622;2022-12-19T15:50:26;6.20;79.90
38325;DHT22;24126;52.672;13.622;2022-12-19T15:52:54;6.30;79.90
38325;DHT22;24126;52.672;13.622;2022-12-19T15:55:23;6.30;79.90
38325;DHT22;24126;52.672;13.622;2022-12-19T15:57:52;6.40;80.00
38325;DHT22;24126;52.672;13.622;2022-12-19T16:00:21;6.40;79.90
38325;DHT22;24126;52.672;13.622;2022-12-19T16:02:49;6.40;79.90
38325;DHT22;24126;52.672;13.622;2022-12-19T16:05:19;6.50;80.00
38325;DHT22;24126;52.672;13.622;2022-12-19T16:07:47;6.50;80.10
38325;DHT22;24126;52.672;13.622;2022-12-19T16:10:15;6.50;80.10
38325;DHT22;24126;52.672;13.622;2022-12-19T16:12:43;6.60;80.00
38325;DHT22;24126;52.672;13.622;2022-12-19T16:15:26;6.60;79.90
38325;DHT22;24126;52.672;13.622;2022-12-19T16:17:54;6.70;80.00
38325;DHT22;24126;52.672;13.622;2022-12-19T16:20:23;6.70;80.20
38325;DHT22;24126;52.672;13.622;2022-12-19T16:22:50;6.80;80.00
38325;DHT22;24126;52.672;13.622;2022-12-19T16:25:17;6.80;80.00
38325;DHT22;24126;52.672;13.622;2022-12-19T16:27:46;6.90;80.50
38325;DHT22;24126;52.672;13.622;2022-12-19T16:30:15;6.90;79.80
38325;DHT22;24126;52.672;13.622;2022-12-19T16:32:42;6.90;79.70
38325;DHT22;24126;52.672;13.622;2022-12-19T16:35:17;6.90;79.80
38325;DHT22;24126;52.672;13.622;2022-12-19T16:37:44;7.00;79.90
38325;DHT22;24126;52.672;13.622;2022-12-19T16:40:14;7.00;79.90
38325;DHT22;24126;52.672;13.622;2022-12-19T16:42:42;7.00;79.80
38325;DHT22;24126;52.672;13.622;2022-12-19T16:45:21;7.00;79.90
38325;DHT22;24126;52.672;13.622;2022-12-19T16:47:48;7.10;79.70
38325;DHT22;24126;52.672;13.622;2022-12-19T16:50:17;7.10;79.70
38325;DHT22;24126;52.672;13.622;2022-12-19T16:52:45;7.10;79.70
38325;DHT22;24126;52.672;13.622;2022-12-19T16:55:13;7.10;79.60
38325;DHT22;24126;52.672;13.622;2022-12-19T16:57:41;7.10;79.80
38325;DHT22;24126;52.672;13.622;2022-12-19T17:00:10;7.10;80.00
38325;DHT22;24126;52.672;13.622;2022-12-19T17:02:40;7.20;79.90
38325;DHT22;24126;52.672;13.622;2022-12-19T17:05:17;7.20;79.90
38325;DHT22;24126;52.672;13.622;2022-12-19T17:07:45;7.20;80.00
38325;DHT22;24126;52.672;13.622;2022-12-19T17:10:12;7.30;79.90
38325;DHT22;24126;52.672;13.622;2022-12-19T17:12:39;7.30;79.80
38325;DHT22;24126;52.672;13.622;2022-12-19T17:15:12;7.30;79.60
38325;DHT22;24126;52.672;13.622;2022-12-19T17:17:43;7.30;79.70
38325;DHT22;24126;52.672;13.622;2022-12-19T17:20:19;7.40;79.80
38325;DHT22;24126;52.672;13.622;2022-12-19T17:22:47;7.30;79.70
38325;DHT22;24126;52.672;13.622;2022-12-19T17:25:24;7.40;79.80
38325;DHT22;24126;52.672;13.622;2022-12-19T17:27:52;7.40;79.90
38325;DHT22;24126;52.672;13.622;2022-12-19T17:30:20;7.40;80.00